Time,TemperatureF,DewpointF,PressureIn,WindDirection,WindDirectionDegrees,WindSpeedMPH,WindSpeedGustMPH,Humidity,HourlyPrecipIn,Conditions,Clouds,dailyrainin,SoftwareType,DateUTC
2013-02-16 00:00:00,22.8,18.4,30.06,WNW,297,5.0,8.0,83,0.00,-SN,,0.00,WeatherDisplay:10.37,2013-02-16 05:00:00,
2013-02-16 00:15:00,22.5,17.8,30.06,West,277,2.0,6.0,82,0.00,-SN,,0.00,WeatherDisplay:10.37,2013-02-16 05:15:00,
2013-02-16 00:30:00,22.5,18.1,30.06,WNW,285,3.0,6.0,83,0.00,-SN,,0.00,WeatherDisplay:10.37,2013-02-16 05:30:00,
2013-02-16 00:45:00,22.5,17.8,30.05,West,268,2.0,5.0,82,0.00,-SN,,0.00,WeatherDisplay:10.37,2013-02-16 05:45:00,
2013-02-16 01:00:00,22.5,17.8,30.04,WSW,241,2.0,3.0,82,0.00,-SN,,0.00,WeatherDisplay:10.37,2013-02-16 06:00:00,
2013-02-16 01:15:00,21.9,17.3,30.05,SW,232,2.0,3.0,82,0.00,OVC,,0.00,WeatherDisplay:10.37,2013-02-16 06:15:00,
2013-02-16 01:30:00,21.6,17.0,30.05,SSW,192,3.0,3.0,82,0.00,OVC,,0.00,WeatherDisplay:10.37,2013-02-16 06:30:00,
2013-02-16 01:45:00,21.4,16.7,30.04,South,180,2.0,3.0,82,0.00,OVC,,0.00,WeatherDisplay:10.37,2013-02-16 06:45:00,
2013-02-16 02:00:00,21.0,16.4,30.02,SW,215,2.0,3.0,82,0.00,OVC,,0.00,WeatherDisplay:10.37,2013-02-16 07:00:00,
2013-02-16 02:15:00,20.7,16.0,30.02,WSW,258,1.0,3.0,82,0.00,OVC,,0.00,WeatherDisplay:10.37,2013-02-16 07:15:00,
2013-02-16 02:30:00,20.3,15.7,30.02,WSW,253,1.0,3.0,82,0.00,OVC,,0.00,WeatherDisplay:10.37,2013-02-16 07:30:00,
2013-02-16 02:45:00,19.9,15.3,30.02,SW,233,0.0,2.0,82,0.00,OVC,,0.00,WeatherDisplay:10.37,2013-02-16 07:45:00,
2013-02-16 03:00:00,19.9,15.6,30.02,SSW,209,2.0,3.0,83,0.00,OVC,,0.00,WeatherDisplay:10.37,2013-02-16 08:00:00,
2013-02-16 03:15:00,19.9,15.9,30.02,SSW,210,1.0,3.0,84,0.00,OVC,,0.00,WeatherDisplay:10.37,2013-02-16 08:15:00,
2013-02-16 03:30:00,20.3,16.2,30.02,SW,224,1.0,3.0,84,0.00,OVC,,0.00,WeatherDisplay:10.37,2013-02-16 08:30:00,
2013-02-16 03:45:00,20.7,16.9,30.01,SW,218,1.0,3.0,85,0.00,OVC,,0.00,WeatherDisplay:10.37,2013-02-16 08:45:00,
2013-02-16 04:00:00,20.7,16.9,30.00,SSW,202,1.0,2.0,85,0.00,OVC,,0.00,WeatherDisplay:10.37,2013-02-16 09:00:00,
2013-02-16 04:15:00,21.0,17.2,29.99,SW,222,1.0,3.0,85,0.00,OVC,,0.00,WeatherDisplay:10.37,2013-02-16 09:15:00,
2013-02-16 04:30:00,21.2,17.4,29.99,SSW,198,2.0,5.0,85,0.00,OVC,,0.00,WeatherDisplay:10.37,2013-02-16 09:30:00,
2013-02-16 04:45:00,21.7,18.2,30.00,WSW,237,5.0,6.0,86,0.00,OVC,,0.00,WeatherDisplay:10.37,2013-02-16 09:45:00,
2013-02-16 05:00:00,21.7,18.2,29.99,WSW,243,3.0,7.0,86,0.00,OVC,,0.00,WeatherDisplay:10.37,2013-02-16 10:00:00,
2013-02-16 05:15:00,21.4,17.6,29.99,WNW,284,3.0,6.0,85,0.00,-SN,,0.00,WeatherDisplay:10.37,2013-02-16 10:15:00,
2013-02-16 05:30:00,21.0,16.9,29.99,NW,308,3.0,7.0,84,0.00,-SN,,0.00,WeatherDisplay:10.37,2013-02-16 10:30:00,
2013-02-16 05:45:00,20.3,15.7,30.00,NNW,329,5.0,7.0,82,0.00,-SN,,0.00,WeatherDisplay:10.37,2013-02-16 10:45:00,
2013-02-16 06:00:00,19.9,15.0,30.00,NW,307,3.0,8.0,81,0.00,-SN,,0.00,WeatherDisplay:10.37,2013-02-16 11:00:00,
2013-02-16 06:15:00,19.2,14.3,29.99,NW,315,3.0,4.0,81,0.00,-SN,,0.00,WeatherDisplay:10.37,2013-02-16 11:15:00,
2013-02-16 06:30:00,18.9,14.0,29.99,NW,309,3.0,5.0,81,0.00,-SN,,0.00,WeatherDisplay:10.37,2013-02-16 11:30:00,
2013-02-16 06:45:00,18.5,13.6,30.00,NW,310,2.0,3.0,81,0.00,-SN,,0.00,WeatherDisplay:10.37,2013-02-16 11:45:00,
2013-02-16 07:00:00,18.1,13.0,30.00,WNW,296,3.0,5.0,80,0.00,-SN,,0.00,WeatherDisplay:10.37,2013-02-16 12:00:00,
2013-02-16 07:15:00,18.1,13.0,30.00,WNW,296,2.0,5.0,80,0.00,-SN,,0.00,WeatherDisplay:10.37,2013-02-16 12:15:00,
2013-02-16 07:30:00,18.1,13.0,30.00,NW,305,2.0,3.0,80,0.00,-SN,,0.00,WeatherDisplay:10.37,2013-02-16 12:30:00,
2013-02-16 07:45:00,18.1,13.0,30.01,NW,319,1.0,4.0,80,0.00,-SN,,0.00,WeatherDisplay:10.37,2013-02-16 12:45:00,
2013-02-16 08:00:00,18.1,13.0,30.00,NW,319,1.0,2.0,80,0.00,-SN,,0.00,WeatherDisplay:10.37,2013-02-16 13:00:00,
2013-02-16 08:15:00,18.3,13.2,30.00,SSW,197,2.0,4.0,80,0.00,-SN,,0.00,WeatherDisplay:10.37,2013-02-16 13:15:00,
2013-02-16 08:30:00,18.4,13.2,30.00,WSW,254,2.0,5.0,80,0.00,-SN,,0.00,WeatherDisplay:10.37,2013-02-16 13:30:00,
2013-02-16 08:45:00,18.9,13.7,30.01,WSW,252,3.0,5.0,80,0.00,-SN,,0.00,WeatherDisplay:10.37,2013-02-16 13:45:00,
2013-02-16 09:00:00,19.0,13.9,30.01,West,259,5.0,7.0,80,0.00,-SN,,0.00,WeatherDisplay:10.37,2013-02-16 14:00:00,
2013-02-16 09:15:00,19.6,14.7,30.01,West,261,6.0,8.0,81,0.00,-SN,,0.00,WeatherDisplay:10.37,2013-02-16 14:15:00,
2013-02-16 09:30:00,19.9,14.7,30.00,WNW,289,5.0,8.0,80,0.00,BKN,,0.00,WeatherDisplay:10.37,2013-02-16 14:30:00,
2013-02-16 09:45:00,19.8,14.6,30.01,WNW,283,6.0,13.0,80,0.00,-SN,,0.00,WeatherDisplay:10.37,2013-02-16 14:45:00,
2013-02-16 10:00:00,19.9,14.7,30.01,WNW,291,8.0,12.0,80,0.00,-SN,,0.00,WeatherDisplay:10.37,2013-02-16 15:00:00,
2013-02-16 10:15:00,20.5,15.3,30.01,WNW,293,7.0,12.0,80,0.00,-SN,,0.00,WeatherDisplay:10.37,2013-02-16 15:15:00,
2013-02-16 10:30:00,20.7,14.9,30.00,WNW,296,8.0,13.0,78,0.00,-SN,,0.00,WeatherDisplay:10.37,2013-02-16 15:30:00,
2013-02-16 10:45:00,21.0,15.5,30.02,West,266,7.0,13.0,79,0.00,-SN,,0.00,WeatherDisplay:10.37,2013-02-16 15:45:00,
2013-02-16 11:00:00,21.0,15.2,30.01,WNW,296,7.0,13.0,78,0.00,-SN,,0.00,WeatherDisplay:10.37,2013-02-16 16:00:00,
2013-02-16 11:15:00,21.0,15.2,30.01,WNW,285,7.0,13.0,78,0.00,-SN,,0.00,WeatherDisplay:10.37,2013-02-16 16:15:00,
2013-02-16 11:30:00,21.1,14.7,30.01,NW,311,7.0,10.0,76,0.00,-SN,,0.00,WeatherDisplay:10.37,2013-02-16 16:30:00,
2013-02-16 11:45:00,21.7,15.0,30.01,NW,311,7.0,10.0,75,0.00,-SN,,0.00,WeatherDisplay:10.37,2013-02-16 16:45:00,
2013-02-16 12:00:00,21.7,15.3,30.01,WNW,287,6.0,9.0,76,0.00,-SN,,0.00,WeatherDisplay:10.37,2013-02-16 17:00:00,
2013-02-16 12:15:00,22.1,15.7,30.01,West,266,7.0,10.0,76,0.00,-SN,,0.00,WeatherDisplay:10.37,2013-02-16 17:15:00,
2013-02-16 12:30:00,22.1,15.4,30.01,West,280,7.0,10.0,75,0.00,-SN,,0.00,WeatherDisplay:10.37,2013-02-16 17:30:00,
2013-02-16 12:45:00,22.5,15.4,30.00,West,268,7.0,11.0,74,0.00,-SN,,0.00,WeatherDisplay:10.37,2013-02-16 17:45:00,
2013-02-16 13:00:00,23.2,16.4,30.00,West,270,8.0,13.0,75,0.00,-SN,,0.00,WeatherDisplay:10.37,2013-02-16 18:00:00,
2013-02-16 13:15:00,22.8,15.8,29.99,West,280,8.0,13.0,74,0.00,BKN,,0.00,WeatherDisplay:10.37,2013-02-16 18:15:00,
2013-02-16 13:30:00,22.9,15.6,29.99,West,277,7.0,11.0,73,0.00,BKN,,0.00,WeatherDisplay:10.37,2013-02-16 18:30:00,
2013-02-16 13:45:00,23.2,14.8,29.99,WSW,256,8.0,12.0,70,0.00,BKN,,0.00,WeatherDisplay:10.37,2013-02-16 18:45:00,
2013-02-16 14:00:00,23.2,14.5,29.99,West,271,8.0,11.0,69,0.00,BKN,,0.00,WeatherDisplay:10.37,2013-02-16 19:00:00,
2013-02-16 14:15:00,22.8,14.5,29.99,West,270,9.0,12.0,70,0.00,-SN,,0.00,WeatherDisplay:10.37,2013-02-16 19:15:00,
2013-02-16 14:30:00,21.9,14.9,29.99,West,263,8.0,13.0,74,0.00,-SN,,0.00,WeatherDisplay:10.37,2013-02-16 19:30:00,
2013-02-16 14:45:00,22.1,15.1,29.99,WSW,252,8.0,12.0,74,0.00,-SN,,0.00,WeatherDisplay:10.37,2013-02-16 19:45:00,
2013-02-16 15:00:00,22.2,14.5,29.99,West,276,9.0,15.0,72,0.00,-SN,,0.00,WeatherDisplay:10.37,2013-02-16 20:00:00,
2013-02-16 15:15:00,22.8,14.8,29.98,WSW,252,8.0,12.0,71,0.00,-SN,,0.00,WeatherDisplay:10.37,2013-02-16 20:15:00,
2013-02-16 15:30:00,22.4,14.8,29.98,WSW,258,8.0,11.0,72,0.00,-SN,,0.00,WeatherDisplay:10.37,2013-02-16 20:30:00,
2013-02-16 15:45:00,22.1,14.4,29.98,WSW,248,7.0,10.0,72,0.00,-SN,,0.00,WeatherDisplay:10.37,2013-02-16 20:45:00,
2013-02-16 16:00:00,22.8,14.8,29.98,WSW,247,6.0,10.0,71,0.00,-SN,,0.00,WeatherDisplay:10.37,2013-02-16 21:00:00,
2013-02-16 16:15:00,22.6,14.3,29.99,WNW,285,9.0,13.0,70,0.00,-SN,,0.00,WeatherDisplay:10.37,2013-02-16 21:15:00,
2013-02-16 16:30:00,22.5,14.2,29.99,West,266,7.0,10.0,70,0.00,-SN,,0.00,WeatherDisplay:10.37,2013-02-16 21:30:00,
2013-02-16 16:45:00,22.8,14.2,29.99,West,274,7.0,10.0,69,0.00,SCT,,0.00,WeatherDisplay:10.37,2013-02-16 21:45:00,
2013-02-16 17:00:00,22.4,13.8,29.99,WNW,288,7.0,13.0,69,0.00,SCT,,0.00,WeatherDisplay:10.37,2013-02-16 22:00:00,
2013-02-16 17:15:00,22.5,14.5,29.99,West,265,7.0,14.0,71,0.00,SCT,,0.00,WeatherDisplay:10.37,2013-02-16 22:15:00,
2013-02-16 17:30:00,22.1,14.1,29.99,West,265,9.0,14.0,71,0.00,SCT,,0.00,WeatherDisplay:10.37,2013-02-16 22:30:00,
2013-02-16 17:45:00,21.7,14.1,30.00,WSW,257,6.0,8.0,72,0.00,SCT,,0.00,WeatherDisplay:10.37,2013-02-16 22:45:00,
2013-02-16 18:00:00,21.3,13.7,29.99,West,280,6.0,9.0,72,0.00,SCT,,0.00,WeatherDisplay:10.37,2013-02-16 23:00:00,
2013-02-16 18:15:00,20.7,13.4,30.01,WNW,292,5.0,7.0,73,0.00,SCT,,0.00,WeatherDisplay:10.37,2013-02-16 23:15:00,
2013-02-16 18:30:00,20.3,13.6,30.01,West,281,5.0,10.0,75,0.00,SCT,,0.00,WeatherDisplay:10.37,2013-02-16 23:30:00,
2013-02-16 18:45:00,20.3,14.2,30.01,WNW,293,5.0,7.0,77,0.00,SCT,,0.00,WeatherDisplay:10.37,2013-02-16 23:45:00,
2013-02-16 19:00:00,20.3,14.5,30.02,WNW,294,5.0,13.0,78,0.00,SCT,,0.00,WeatherDisplay:10.37,2013-02-17 00:00:00,
2013-02-16 19:15:00,20.3,14.5,30.03,WNW,302,9.0,14.0,78,0.00,SCT,,0.00,WeatherDisplay:10.37,2013-02-17 00:15:00,
2013-02-16 19:30:00,19.9,13.9,30.03,WNW,303,8.0,10.0,77,0.00,SCT,,0.00,WeatherDisplay:10.37,2013-02-17 00:30:00,
2013-02-16 19:45:00,19.6,13.5,30.03,WNW,297,5.0,10.0,77,0.00,-SN,,0.00,WeatherDisplay:10.37,2013-02-17 00:45:00,
2013-02-16 20:00:00,19.6,13.8,30.03,WNW,297,3.0,6.0,78,0.00,BKN,,0.00,WeatherDisplay:10.37,2013-02-17 01:00:00,
2013-02-16 20:15:00,19.0,13.3,30.04,NW,324,2.0,5.0,78,0.00,OVC,,0.00,WeatherDisplay:10.37,2013-02-17 01:15:00,
2013-02-16 20:30:00,18.9,13.4,30.04,NNW,338,2.0,5.0,79,0.00,OVC,,0.00,WeatherDisplay:10.37,2013-02-17 01:30:00,
2013-02-16 20:45:00,18.5,13.4,30.03,NW,309,3.0,5.0,80,0.00,OVC,,0.00,WeatherDisplay:10.37,2013-02-17 01:45:00,
2013-02-16 21:00:00,18.1,13.3,30.04,NW,322,2.0,7.0,81,0.00,OVC,,0.00,WeatherDisplay:10.37,2013-02-17 02:00:00,
2013-02-16 21:15:00,17.8,12.7,30.04,WNW,293,1.0,4.0,80,0.00,SCT,,0.00,WeatherDisplay:10.37,2013-02-17 02:15:00,
2013-02-16 21:30:00,17.6,12.8,30.04,WNW,300,1.0,4.0,81,0.00,SCT,,0.00,WeatherDisplay:10.37,2013-02-17 02:30:00,
2013-02-16 21:45:00,17.4,12.9,30.04,NNW,328,3.0,6.0,82,0.00,SCT,,0.00,WeatherDisplay:10.37,2013-02-17 02:45:00,
2013-02-16 22:00:00,16.9,12.3,30.05,NE,56,1.0,4.0,82,0.00,SCT,,0.00,WeatherDisplay:10.37,2013-02-17 03:00:00,
2013-02-16 22:15:00,16.5,12.0,30.05,NNW,330,1.0,2.0,82,0.00,FEW,,0.00,WeatherDisplay:10.37,2013-02-17 03:15:00,
2013-02-16 22:30:00,16.2,11.9,30.05,NW,315,2.0,3.0,83,0.00,FEW,,0.00,WeatherDisplay:10.37,2013-02-17 03:30:00,
2013-02-16 22:45:00,16.0,11.7,30.06,NNW,328,1.0,3.0,83,0.00,FEW,,0.00,WeatherDisplay:10.37,2013-02-17 03:45:00,
2013-02-16 23:00:00,16.0,11.7,30.06,North,8,0.0,3.0,83,0.00,FEW,,0.00,WeatherDisplay:10.37,2013-02-17 04:00:00,
2013-02-16 23:15:00,15.4,11.2,30.06,NW,319,1.0,3.0,83,0.00,SCT,,0.00,WeatherDisplay:10.37,2013-02-17 04:15:00,
2013-02-16 23:30:00,15.3,10.8,30.06,NNW,328,1.0,3.0,82,0.00,SCT,,0.00,WeatherDisplay:10.37,2013-02-17 04:30:00,
2013-02-16 23:45:00,14.5,10.0,30.06,NNW,346,0.0,2.0,82,0.00,SCT,,0.00,WeatherDisplay:10.37,2013-02-17 04:45:00,